Time;durP1;ratioP1;P1;durP2;ratioP2;P2;SDS_P1;SDS_P2;PMS_P1;PMS_P2;Temp;Humidity;BMP_temperature;BMP_pressure;BME280_temperature;BME280_humidity;BME280_pressure;Samples;Min_cycle;Max_cycle;Signal;HPM_P1;HPM_P2
2021/03/05 00:07:37;;;;;;;20.52;11.60;;;;;;;4.79;85.81;99093.25;4851191;29;20061;-92
2021/03/05 00:13:19;;;;;;;18.73;12.02;;;;;;;4.78;86.78;99133.81;4986042;28;20048;-92
2021/03/05 00:16:11;;;;;;;;;;;;;;;;;;;;;
2021/03/05 00:19:09;;;;;;;24.55;14.60;;;;;;;4.68;85.38;99101.53;5064551;28;20048;-93
2021/03/05 00:21:56;;;;;;;;;;;;;;;;;;;;;
2021/03/05 00:24:31;;;;;;;21.63;10.65;;;;;;;4.60;85.34;99120.28;5074012;28;20044;-92
2021/03/05 00:27:00;;;;;;;25.55;14.80;;;;;;;4.65;86.01;99146.75;5070955;28;20091;-91
2021/03/05 00:29:34;;;;;;;30.77;18.20;;;;;;;4.58;85.42;99131.19;5074919;28;20113;-93
2021/03/05 00:32:33;;;;;;;;;;;;;;;;;;;;;
2021/03/05 00:35:16;;;;;;;27.70;16.13;;;;;;;4.40;85.44;99141.88;5070433;28;20492;-93
2021/03/05 00:37:56;;;;;;;21.10;12.30;;;;;;;4.07;85.16;99127.09;5077160;28;20049;-92
2021/03/05 00:40:32;;;;;;;28.83;15.05;;;;;;;4.16;85.89;99134.28;5075687;28;20557;-93
2021/03/05 00:43:02;;;;;;;30.35;18.27;;;;;;;4.14;84.94;99149.72;5075108;28;20049;-92
2021/03/05 00:45:29;;;;;;;19.48;10.82;;;;;;;3.99;84.82;99153.84;5074158;28;20511;-93
2021/03/05 00:50:51;;;;;;;28.52;14.95;;;;;;;3.82;85.12;99161.63;5075861;28;20114;-92
2021/03/05 00:53:18;;;;;;;27.33;14.45;;;;;;;3.66;85.40;99150.63;5082771;28;20102;-92
2021/03/05 00:55:50;;;;;;;33.22;16.02;;;;;;;3.80;85.77;99169.00;5095085;28;20419;-92
2021/03/05 00:58:17;;;;;;;33.85;18.23;;;;;;;3.87;85.21;99163.91;5093718;28;20047;-89
2021/03/05 01:00:51;;;;;;;30.95;16.38;;;;;;;3.69;85.32;99147.66;5065752;28;20067;-92
2021/03/05 01:03:23;;;;;;;31.92;17.40;;;;;;;3.81;85.23;99164.47;5073493;28;20412;-92
2021/03/05 01:05:53;;;;;;;29.10;16.77;;;;;;;3.99;84.36;99186.13;5061812;28;20053;-91
2021/03/05 01:08:34;;;;;;;32.72;16.50;;;;;;;3.80;85.11;99174.38;5061529;28;20063;-91
2021/03/05 01:11:30;;;;;;;;;;;;;;;;;;;;;
2021/03/05 01:17:23;;;;;;;27.98;15.55;;;;;;;3.66;84.05;99170.28;4990646;28;20050;-91
2021/03/05 01:23:01;;;;;;;32.20;14.73;;;;;;;3.68;84.13;99162.06;5070477;28;20045;-92
2021/03/05 01:25:37;;;;;;;24.77;13.80;;;;;;;3.59;83.94;99173.66;5073389;28;20105;-91
2021/03/05 01:28:24;;;;;;;;;;;;;;;;;;;;;
2021/03/05 01:30:58;;;;;;;26.38;13.88;;;;;;;3.50;83.95;99181.56;5072252;28;20048;-90
2021/03/05 01:33:59;;;;;;;26.85;14.65;;;;;;;3.50;85.01;99188.78;5072549;28;20048;-91
2021/03/05 01:36:57;;;;;;;29.10;15.50;;;;;;;3.49;84.57;99179.88;5008729;28;20054;-89
2021/03/05 01:40:04;;;;;;;;;;;;;;;;;;;;;
2021/03/05 01:43:26;;;;;;;;;;;;;;;;;;;;;
2021/03/05 01:46:23;;;;;;;24.30;12.00;;;;;;;3.40;84.33;99210.25;5071256;28;20052;-89
2021/03/05 01:49:02;;;;;;;;;;;;;;;;;;;;;
2021/03/05 01:52:07;;;;;;;32.33;16.08;;;;;;;3.30;84.88;99199.50;5049047;28;20064;-89
2021/03/05 01:55:29;;;;;;;27.27;14.43;;;;;;;3.24;84.74;99178.56;5014395;28;20048;-89
2021/03/05 01:58:25;;;;;;;28.05;15.70;;;;;;;3.32;84.07;99210.09;4876597;29;20104;-89
2021/03/05 02:14:11;;;;;;;;;;;;;;;;;;;;;
2021/03/05 02:17:15;;;;;;;30.55;15.23;;;;;;;3.08;84.85;99197.03;4970889;28;20070;-93
2021/03/05 02:23:49;;;;;;;27.65;14.57;;;;;;;3.35;84.39;99231.34;5051019;28;20045;-92
2021/03/05 02:30:36;;;;;;;;;;;;;;;;;;;;;
2021/03/05 02:45:02;;;;;;;;;;;;;;;;;;;;;
2021/03/05 02:51:45;;;;;;;;;;;;;;;;;;;;;
2021/03/05 02:54:28;;;;;;;19.02;11.80;;;;;;;3.26;84.30;99241.06;4903780;29;20056;-93
2021/03/05 03:01:32;;;;;;;;;;;;;;;;;;;;;
2021/03/05 03:04:22;;;;;;;20.58;10.25;;;;;;;3.27;84.92;99260.75;4798530;29;20059;-91
2021/03/05 03:11:18;;;;;;;21.40;10.90;;;;;;;3.11;84.85;99278.19;4729012;30;20118;-91
2021/03/05 03:21:27;;;;;;;;;;;;;;;;;;;;;
2021/03/05 03:24:20;;;;;;;;;;;;;;;;;;;;;
2021/03/05 03:26:51;;;;;;;16.60;10.75;;;;;;;2.94;85.28;99276.13;5015282;28;20237;-91
2021/03/05 03:37:03;;;;;;;;;;;;;;;;;;;;;
2021/03/05 03:50:00;;;;;;;;;;;;;;;;;;;;;
2021/03/05 06:49:21;;;;;;;15.80;8.20;;;;;;;2.45;81.28;99453.81;5011226;28;20060;-84
2021/03/05 06:52:38;;;;;;;17.85;8.38;;;;;;;2.58;81.97;99488.53;5008134;28;20113;-86
2021/03/05 08:05:11;;;;;;;14.98;8.10;;;;;;;2.90;81.10;99544.09;4842717;29;20109;-86
2021/03/05 13:59:56;;;;;;;20.55;9.73;;;;;;;3.16;81.08;99774.81;4972125;28;20051;-85
2021/03/05 14:02:23;;;;;;;17.52;9.77;;;;;;;3.21;81.14;99769.06;4961427;28;20047;-85
2021/03/05 14:04:49;;;;;;;10.27;5.25;;;;;;;3.27;80.81;99793.63;4965578;28;20062;-85
2021/03/05 14:07:16;;;;;;;17.10;6.72;;;;;;;3.51;80.19;99806.09;4969485;28;20054;-85
2021/03/05 14:09:43;;;;;;;13.73;7.57;;;;;;;3.33;80.78;99786.91;4961929;28;20065;-85
2021/03/05 14:12:12;;;;;;;14.02;6.70;;;;;;;3.10;80.48;99786.94;4956739;28;20050;-85
2021/03/05 14:14:43;;;;;;;8.85;4.22;;;;;;;3.05;81.01;99793.63;4954417;28;20126;-87
2021/03/05 14:17:12;;;;;;;14.73;6.85;;;;;;;3.31;79.81;99813.03;4972760;28;20057;-85
2021/03/05 14:19:38;;;;;;;12.88;6.97;;;;;;;3.28;79.53;99799.84;4972481;28;20043;-86
2021/03/05 14:22:05;;;;;;;23.00;14.43;;;;;;;3.40;79.39;99800.72;4973696;28;20054;-86
2021/03/05 14:24:32;;;;;;;12.60;6.68;;;;;;;3.50;79.57;99824.03;4972342;28;20462;-85
2021/03/05 14:27:03;;;;;;;9.70;5.50;;;;;;;3.56;78.77;99835.28;4973222;28;20082;-86
2021/03/05 14:29:29;;;;;;;9.38;5.72;;;;;;;3.42;77.26;99823.81;4972082;28;20403;-86
2021/03/05 14:32:06;;;;;;;9.43;5.35;;;;;;;3.47;78.04;99840.41;4973151;28;20058;-86
2021/03/05 14:34:33;;;;;;;15.65;7.82;;;;;;;3.40;77.34;99833.81;4972393;28;20074;-86
2021/03/05 14:37:02;;;;;;;12.50;6.93;;;;;;;3.48;77.97;99852.03;4973104;28;20101;-86
2021/03/05 14:39:29;;;;;;;8.40;5.07;;;;;;;3.58;78.24;99852.16;4972709;28;20066;-85
2021/03/05 14:41:59;;;;;;;9.27;5.05;;;;;;;3.68;77.87;99855.81;4972652;28;20057;-85
2021/03/05 14:44:27;;;;;;;10.55;5.28;;;;;;;3.63;77.88;99849.94;4971826;28;20080;-84
2021/03/05 14:46:54;;;;;;;8.75;4.45;;;;;;;3.50;77.22;99842.00;4973234;28;20051;-86
2021/03/05 14:49:23;;;;;;;9.32;5.15;;;;;;;3.52;77.34;99861.53;4973062;28;20047;-85
2021/03/05 14:51:51;;;;;;;8.52;5.00;;;;;;;3.52;77.35;99861.53;4972046;28;20051;-85
2021/03/05 14:54:24;;;;;;;7.93;4.97;;;;;;;3.26;77.18;99831.38;4972468;28;20129;-86
2021/03/05 14:56:51;;;;;;;9.40;5.57;;;;;;;3.24;77.24;99831.50;4972748;28;20070;-85
2021/03/05 14:59:17;;;;;;;9.52;5.13;;;;;;;3.56;76.70;99892.59;4971785;28;20101;-86
2021/03/05 15:01:44;;;;;;;7.60;4.43;;;;;;;3.44;76.92;99877.44;4972910;28;20533;-85
2021/03/05 15:04:12;;;;;;;6.72;3.80;;;;;;;3.44;75.95;99874.75;4963226;28;20117;-85
2021/03/05 15:06:38;;;;;;;5.72;3.42;;;;;;;3.39;73.73;99893.06;4962144;28;20078;-85
2021/03/05 15:09:06;;;;;;;7.30;4.13;;;;;;;3.29;73.42;99866.91;4972056;28;20414;-85
2021/03/05 15:11:33;;;;;;;3.83;2.65;;;;;;;3.31;74.40;99890.97;4972809;28;20046;-85
2021/03/05 15:13:59;;;;;;;5.10;3.47;;;;;;;3.28;73.26;99872.41;4972438;28;20067;-85
2021/03/05 15:16:26;;;;;;;5.20;3.30;;;;;;;3.20;72.29;99870.34;4972235;28;20055;-85
2021/03/05 15:18:54;;;;;;;5.72;2.97;;;;;;;3.34;72.55;99896.13;4971742;28;20043;-85
2021/03/05 15:21:21;;;;;;;5.90;3.35;;;;;;;3.31;72.17;99886.50;4973661;28;20050;-85
2021/03/05 15:23:53;;;;;;;4.68;3.05;;;;;;;3.32;71.98;99898.09;4975228;28;20061;-85
2021/03/05 15:26:26;;;;;;;6.05;3.22;;;;;;;3.26;72.45;99896.72;4956921;28;20047;-85
2021/03/05 15:28:53;;;;;;;4.72;2.95;;;;;;;3.21;72.31;99881.94;4956912;28;20070;-85
2021/03/05 15:31:22;;;;;;;7.47;4.03;;;;;;;3.27;72.99;99885.00;4972206;28;20058;-85
2021/03/05 15:33:49;;;;;;;3.85;2.90;;;;;;;3.27;72.99;99884.16;4970534;28;20052;-85
2021/03/05 15:36:18;;;;;;;6.70;3.35;;;;;;;3.46;72.67;99908.63;4956712;28;20047;-85
2021/03/05 15:38:48;;;;;;;5.78;3.42;;;;;;;3.43;72.28;99900.75;4956667;28;20113;-85
2021/03/05 15:41:17;;;;;;;6.88;3.70;;;;;;;3.54;73.31;99919.59;4975346;28;20070;-85
2021/03/05 15:43:45;;;;;;;5.20;3.05;;;;;;;3.52;72.74;99900.06;4975684;28;20086;-85
2021/03/05 15:46:11;;;;;;;4.85;2.95;;;;;;;3.62;73.90;99928.91;4962894;28;20065;-85
2021/03/05 15:48:42;;;;;;;5.03;3.47;;;;;;;3.59;71.76;99919.25;4957198;28;20069;-85
2021/03/05 15:51:12;;;;;;;4.82;3.58;;;;;;;3.54;71.92;99929.50;4975950;28;20109;-85
2021/03/05 15:53:44;;;;;;;5.45;3.80;;;;;;;3.62;71.39;99932.44;4975369;28;20062;-84
2021/03/05 15:56:14;;;;;;;5.50;3.17;;;;;;;3.54;72.66;99916.06;4975041;28;20062;-85
2021/03/05 15:58:41;;;;;;;4.03;3.08;;;;;;;3.72;71.02;99921.81;4974173;28;20578;-85
2021/03/05 16:01:10;;;;;;;5.63;4.03;;;;;;;3.66;70.03;99941.13;4975466;28;20061;-85
2021/03/05 16:03:37;;;;;;;8.40;3.60;;;;;;;3.48;70.37;99917.41;4975938;28;20483;-85
2021/03/05 16:06:09;;;;;;;6.85;3.45;;;;;;;3.53;70.28;99928.63;4973822;28;20051;-86
2021/03/05 16:08:37;;;;;;;4.97;3.45;;;;;;;3.57;70.99;99944.53;4974606;28;20499;-86
2021/03/05 16:11:04;;;;;;;5.60;3.40;;;;;;;3.53;70.57;99936.69;4975319;28;20050;-85
2021/03/05 16:13:39;;;;;;;5.38;3.20;;;;;;;3.61;71.37;99954.06;4975665;28;20125;-85
2021/03/05 16:16:11;;;;;;;4.10;2.80;;;;;;;3.29;70.99;99920.66;4956751;28;20074;-86
2021/03/05 16:18:38;;;;;;;6.07;3.03;;;;;;;3.36;70.53;99924.59;4974434;28;20442;-85
2021/03/05 16:21:07;;;;;;;7.22;3.85;;;;;;;3.43;71.25;99940.25;4975580;28;20058;-86
2021/03/05 16:23:35;;;;;;;7.53;3.30;;;;;;;3.26;71.52;99957.69;4957323;28;20523;-86
2021/03/05 16:26:02;;;;;;;6.57;3.85;;;;;;;3.36;71.80;99951.47;4954363;28;20310;-86
2021/03/05 16:28:30;;;;;;;6.55;3.55;;;;;;;3.57;71.42;99983.03;4956393;28;20094;-86
2021/03/05 16:31:00;;;;;;;6.53;3.92;;;;;;;3.46;70.62;99965.06;4970202;28;20055;-85
2021/03/05 16:33:27;;;;;;;7.97;4.07;;;;;;;3.56;71.38;99967.03;4973934;28;20051;-84
2021/03/05 16:35:59;;;;;;;7.43;3.90;;;;;;;3.49;72.41;99991.72;4974820;28;20112;-85
2021/03/05 16:38:32;;;;;;;6.05;3.72;;;;;;;3.30;71.64;99964.56;4973494;28;20139;-85
2021/03/05 16:41:02;;;;;;;7.50;3.88;;;;;;;3.35;71.21;99973.09;4974992;28;20410;-85
2021/03/05 16:43:33;;;;;;;5.72;3.47;;;;;;;3.40;71.69;99983.50;4974249;28;20051;-85
2021/03/05 16:46:02;;;;;;;5.90;3.65;;;;;;;3.32;73.53;99984.09;4954919;28;20047;-85
2021/03/05 16:48:32;;;;;;;6.28;3.75;;;;;;;3.35;74.05;99989.22;4955691;28;20462;-85
2021/03/05 16:50:59;;;;;;;5.95;3.63;;;;;;;3.42;74.23;100001.22;4969704;28;20055;-85
2021/03/05 16:53:28;;;;;;;5.55;3.50;;;;;;;3.39;74.22;100012.22;4974269;28;20082;-85
2021/03/05 16:55:54;;;;;;;5.07;2.97;;;;;;;3.35;74.41;100027.69;4972035;28;20086;-85
2021/03/05 16:58:22;;;;;;;7.45;3.58;;;;;;;3.28;74.20;100004.09;4954479;28;20070;-84
2021/03/05 17:00:51;;;;;;;5.30;3.67;;;;;;;3.29;73.80;100011.19;4961227;28;20054;-85
2021/03/05 17:03:17;;;;;;;5.72;3.63;;;;;;;3.32;73.36;100027.94;4974299;28;20047;-85
2021/03/05 17:05:45;;;;;;;8.07;3.90;;;;;;;3.20;73.34;100007.38;4972921;28;20042;-84
2021/03/05 17:08:13;;;;;;;6.55;3.25;;;;;;;3.31;74.86;100026.25;4974087;28;20043;-84
2021/03/05 17:10:40;;;;;;;7.78;3.30;;;;;;;3.16;73.83;100022.00;4974240;28;20159;-85
2021/03/05 17:13:09;;;;;;;4.80;3.05;;;;;;;3.22;74.35;100045.72;4972864;28;20398;-85
2021/03/05 17:15:35;;;;;;;8.07;3.70;;;;;;;3.30;73.89;100061.31;4973541;28;20050;-85
2021/03/05 17:18:04;;;;;;;8.15;3.95;;;;;;;3.30;73.90;100054.09;4971805;28;20050;-85
2021/03/05 17:20:31;;;;;;;8.35;3.75;;;;;;;3.21;73.66;100051.22;4973648;28;20047;-85
2021/03/05 17:22:59;;;;;;;7.22;3.60;;;;;;;3.01;74.39;100038.34;4972582;28;20050;-85
2021/03/05 17:25:25;;;;;;;5.45;2.97;;;;;;;3.17;74.86;100072.94;4972913;28;20249;-86
2021/03/05 17:27:52;;;;;;;4.65;3.30;;;;;;;2.93;76.52;100051.47;4954287;28;20458;-85
2021/03/05 17:30:19;;;;;;;7.55;3.80;;;;;;;2.93;75.52;100058.69;4957819;28;20087;-85
2021/03/05 17:32:45;;;;;;;6.03;3.13;;;;;;;3.07;75.62;100090.75;4957881;28;20051;-86
2021/03/05 17:35:13;;;;;;;8.50;4.18;;;;;;;3.07;75.26;100098.81;4972291;28;20074;-85
2021/03/05 17:37:41;;;;;;;6.68;4.72;;;;;;;2.87;75.49;100067.19;4975375;28;20067;-86
2021/03/05 17:40:10;;;;;;;6.65;3.70;;;;;;;2.88;75.03;100096.63;4958244;28;20069;-89
2021/03/05 17:42:37;;;;;;;7.32;4.60;;;;;;;2.77;74.25;100081.31;4962790;28;20081;-85
2021/03/05 17:45:08;;;;;;;7.70;4.93;;;;;;;2.83;74.12;100104.13;4972669;28;20486;-85
2021/03/05 17:47:36;;;;;;;7.18;3.75;;;;;;;2.66;74.60;100097.31;4973272;28;20050;-86
2021/03/05 17:50:04;;;;;;;7.68;4.20;;;;;;;2.68;73.63;100098.09;4973472;28;20047;-86
2021/03/05 17:52:35;;;;;;;11.80;4.20;;;;;;;2.39;74.91;100095.66;4973273;28;20047;-86
2021/03/05 17:55:19;;;;;;;7.32;4.07;;;;;;;2.55;73.29;100133.00;4955392;28;20063;-86
2021/03/05 17:57:46;;;;;;;5.97;3.60;;;;;;;2.27;72.44;100137.66;4972133;28;20505;-87
2021/03/05 18:00:14;;;;;;;9.52;5.13;;;;;;;2.43;68.98;100139.25;4973039;28;20058;-85
2021/03/05 18:02:42;;;;;;;6.95;4.15;;;;;;;2.36;69.94;100140.66;4966218;28;20094;-85
2021/03/05 18:05:10;;;;;;;7.38;4.10;;;;;;;2.21;70.28;100131.84;4967378;28;20121;-85
2021/03/05 18:07:37;;;;;;;10.98;4.45;;;;;;;2.09;70.91;100150.53;4963312;28;20047;-85
2021/03/05 18:10:09;;;;;;;8.13;4.82;;;;;;;2.06;71.33;100153.44;4961105;28;20143;-85
2021/03/05 18:12:41;;;;;;;9.50;4.78;;;;;;;1.88;71.65;100154.69;4973094;28;20055;-85
2021/03/05 18:15:35;;;;;;;;;;;;;;;;;;;;;
2021/03/05 18:18:07;;;;;;;6.35;4.07;;;;;;;1.72;69.76;100168.28;4969132;28;20057;-85
2021/03/05 18:20:36;;;;;;;8.90;4.07;;;;;;;1.65;71.36;100167.81;4963313;28;20050;-85
2021/03/05 18:23:06;;;;;;;8.40;4.65;;;;;;;1.64;71.42;100189.38;4966868;28;20116;-85
2021/03/05 18:25:32;;;;;;;7.88;4.75;;;;;;;1.48;71.41;100171.63;4965306;28;20395;-85
2021/03/05 18:28:06;;;;;;;9.27;4.78;;;;;;;1.45;72.98;100179.88;4971189;28;20142;-85
2021/03/05 18:30:32;;;;;;;11.52;5.10;;;;;;;1.17;72.38;100143.34;4969660;28;20061;-84
2021/03/05 18:33:01;;;;;;;10.75;5.35;;;;;;;1.24;72.42;100183.00;4968934;28;20047;-84
2021/03/05 18:35:30;;;;;;;7.75;4.25;;;;;;;1.15;72.06;100180.09;4960118;28;20070;-85
2021/03/05 18:37:58;;;;;;;9.73;4.40;;;;;;;1.09;72.53;100186.69;4967665;28;20401;-85
2021/03/05 18:40:27;;;;;;;11.48;4.63;;;;;;;1.01;72.63;100172.91;4969833;28;20082;-85
2021/03/05 18:43:29;;;;;;;8.10;4.70;;;;;;;0.96;72.73;100191.97;4972328;28;20054;-84
2021/03/05 18:45:57;;;;;;;7.03;4.17;;;;;;;0.83;72.98;100191.91;4953694;28;20052;-84
2021/03/05 18:48:27;;;;;;;8.30;4.07;;;;;;;0.79;73.52;100211.78;4956940;28;20150;-84
2021/03/05 18:50:54;;;;;;;8.53;4.30;;;;;;;0.57;73.03;100177.47;4972193;28;20298;-84
2021/03/05 18:53:23;;;;;;;5.97;4.00;;;;;;;0.42;73.72;100178.44;4972850;28;20062;-84
2021/03/05 18:55:51;;;;;;;9.53;4.27;;;;;;;0.77;72.08;100231.56;4972818;28;20082;-84
2021/03/05 18:58:21;;;;;;;6.83;4.00;;;;;;;0.79;71.79;100227.00;4976051;28;20055;-84
2021/03/05 19:00:48;;;;;;;8.47;4.47;;;;;;;0.40;72.57;100194.56;4976447;28;20050;-84
2021/03/05 19:03:16;;;;;;;8.53;5.33;;;;;;;0.48;72.58;100215.50;4976521;28;20063;-84
2021/03/05 19:05:43;;;;;;;8.07;4.57;;;;;;;0.42;73.27;100207.88;4975757;28;20113;-84
2021/03/05 19:08:10;;;;;;;7.50;3.73;;;;;;;0.14;73.67;100210.41;4976424;28;20050;-85
2021/03/05 19:10:37;;;;;;;6.80;4.67;;;;;;;0.28;73.63;100233.63;4976101;28;20106;-83
2021/03/05 19:13:07;;;;;;;7.23;4.10;;;;;;;0.16;73.99;100232.56;4975938;28;20554;-84
2021/03/05 19:15:33;;;;;;;;;;;;;;;0.25;75.11;100243.66;4975994;28;20138;-85
2021/03/05 19:18:00;;;;;;;9.33;4.47;;;;;;;-0.01;75.40;100238.06;4974575;28;19922;-83
2021/03/05 19:20:27;;;;;;;23.67;10.60;;;;;;;0.03;75.05;100258.34;4980725;28;20105;-85
2021/03/05 19:22:54;;;;;;;17.33;7.73;;;;;;;-0.07;75.93;100241.97;4977591;28;20117;-84
2021/03/05 19:25:21;;;;;;;15.43;6.93;;;;;;;-0.13;75.72;100228.97;4976489;28;20542;-85
2021/03/05 19:27:47;;;;;;;11.77;6.20;;;;;;;-0.32;76.41;100225.66;4975378;28;20042;-84
2021/03/05 19:30:16;;;;;;;10.27;5.60;;;;;;;-0.11;75.59;100256.44;4974647;28;20055;-84
2021/03/05 19:32:42;;;;;;;13.83;5.07;;;;;;;-0.30;75.07;100256.69;4975571;28;20166;-84
2021/03/05 19:35:16;;;;;;;10.33;5.40;;;;;;;-0.43;76.18;100253.84;4975154;28;20061;-84
2021/03/05 19:37:46;;;;;;;10.77;5.40;;;;;;;-0.37;75.15;100248.13;4975077;28;20055;-83
2021/03/05 19:40:15;;;;;;;8.60;4.70;;;;;;;-0.56;75.25;100237.66;4975418;28;20055;-84
2021/03/05 19:42:41;;;;;;;10.15;5.03;;;;;;;-0.51;76.20;100277.47;4974334;28;20054;-84
2021/03/05 19:45:09;;;;;;;7.50;4.77;;;;;;;-0.69;75.78;100273.16;4958902;28;20059;-84
2021/03/05 19:47:35;;;;;;;6.67;4.50;;;;;;;-0.84;77.28;100250.81;4955955;28;20058;-84
2021/03/05 19:50:04;;;;;;;7.50;4.83;;;;;;;-0.84;77.37;100283.75;4956067;28;20055;-83
2021/03/05 19:52:34;;;;;;;8.57;4.00;;;;;;;-0.97;77.24;100275.53;4955942;28;20542;-84
2021/03/05 19:55:01;;;;;;;;;;;;;;;-0.91;77.61;100291.22;4966324;28;20463;-83
2021/03/05 19:57:28;;;;;;;8.10;4.30;;;;;;;-0.99;77.44;100284.59;4974686;28;19937;-84
2021/03/05 19:59:54;;;;;;;7.30;4.60;;;;;;;-1.00;78.09;100302.41;4973429;28;20051;-84
2021/03/05 20:02:21;;;;;;;10.40;5.10;;;;;;;-1.19;79.00;100294.53;4975304;28;20054;-84
2021/03/05 20:04:47;;;;;;;12.43;7.03;;;;;;;-1.29;78.17;100262.16;4974652;28;20136;-84
2021/03/05 20:07:14;;;;;;;10.23;6.33;;;;;;;-0.98;77.13;100300.53;4974496;28;20146;-83
2021/03/05 20:09:40;;;;;;;8.97;5.40;;;;;;;-1.00;77.77;100294.41;4975198;28;20050;-84
2021/03/05 20:12:09;;;;;;;9.63;5.37;;;;;;;-1.03;78.11;100307.06;4974073;28;20062;-83
2021/03/05 20:14:35;;;;;;;7.37;4.43;;;;;;;-1.20;78.57;100315.97;4975120;28;20419;-84
2021/03/05 20:17:02;;;;;;;8.73;4.80;;;;;;;-1.32;79.16;100314.81;4973501;28;20518;-84
2021/03/05 20:19:30;;;;;;;10.93;5.90;;;;;;;-1.34;78.19;100306.00;4974876;28;20129;-84
2021/03/05 20:21:59;;;;;;;10.90;4.97;;;;;;;-1.61;78.93;100288.72;4974065;28;20125;-84
2021/03/05 20:24:25;;;;;;;14.45;5.20;;;;;;;-1.43;78.44;100324.25;4974550;28;20061;-84
2021/03/05 20:26:54;;;;;;;8.30;4.73;;;;;;;-1.55;78.30;100303.53;4974290;28;20055;-84
2021/03/05 20:29:21;;;;;;;11.00;6.57;;;;;;;-1.63;78.76;100327.91;4974644;28;20455;-84
2021/03/05 20:31:48;;;;;;;11.50;6.50;;;;;;;-1.55;78.88;100340.00;4974201;28;20051;-84
2021/03/05 20:34:16;;;;;;;14.17;6.50;;;;;;;-1.77;78.89;100298.44;4957017;28;20059;-84
2021/03/05 20:36:43;;;;;;;10.37;6.27;;;;;;;-1.76;79.04;100304.63;4955423;28;20122;-84
2021/03/05 20:39:10;;;;;;;9.87;5.20;;;;;;;-1.79;79.47;100297.69;4967090;28;20051;-83
2021/03/05 20:41:36;;;;;;;11.87;4.57;;;;;;;-1.75;78.86;100325.03;4973602;28;20512;-83
2021/03/05 20:44:05;;;;;;;8.93;4.97;;;;;;;-1.82;79.42;100308.50;4974049;28;20105;-83
2021/03/05 20:46:37;;;;;;;7.70;4.23;;;;;;;-1.74;78.88;100348.94;4974081;28;20618;-83
2021/03/05 20:49:04;;;;;;;9.70;4.97;;;;;;;-1.81;79.10;100336.84;4973721;28;20465;-82
2021/03/05 20:51:30;;;;;;;9.37;4.90;;;;;;;-1.79;78.88;100356.31;4973414;28;20409;-83
2021/03/05 20:54:00;;;;;;;9.77;5.13;;;;;;;-1.87;79.27;100358.50;4974279;28;20502;-84
2021/03/05 20:56:27;;;;;;;9.27;4.90;;;;;;;-2.03;79.60;100345.06;4972686;28;20062;-83
2021/03/05 20:58:53;;;;;;;7.53;4.80;;;;;;;-1.96;79.54;100370.47;4973580;28;20050;-83
2021/03/05 21:01:20;;;;;;;8.37;3.77;;;;;;;-1.93;79.07;100353.47;4973734;28;20410;-83
2021/03/05 21:03:47;;;;;;;7.47;3.83;;;;;;;-1.99;79.07;100382.16;4973474;28;20054;-83
2021/03/05 21:06:14;;;;;;;10.70;5.17;;;;;;;-2.01;79.19;100373.34;4973489;28;20050;-84
2021/03/05 21:08:40;;;;;;;7.37;4.43;;;;;;;-2.27;79.34;100344.44;4973236;28;20078;-83
2021/03/05 21:11:07;;;;;;;7.10;4.47;;;;;;;-2.09;79.11;100364.00;4973111;28;20130;-83
2021/03/05 21:13:34;;;;;;;10.43;5.80;;;;;;;-2.04;78.25;100368.19;4973729;28;20070;-83
2021/03/05 21:16:00;;;;;;;10.30;5.83;;;;;;;-2.05;78.21;100386.91;4972862;28;20050;-83
2021/03/05 21:18:27;;;;;;;7.53;4.47;;;;;;;-2.06;78.37;100393.16;4953853;28;20410;-83
2021/03/05 21:20:58;;;;;;;11.20;4.77;;;;;;;-2.26;77.79;100389.66;4954663;28;20463;-83
2021/03/05 21:23:24;;;;;;;7.93;4.57;;;;;;;-2.22;78.14;100409.03;4969702;28;20059;-83
2021/03/05 21:25:50;;;;;;;6.00;3.40;;;;;;;-2.17;77.62;100399.91;4971828;28;20053;-82
2021/03/05 21:28:17;;;;;;;9.13;4.30;;;;;;;-2.37;77.43;100365.34;4973576;28;20085;-83
2021/03/05 21:30:44;;;;;;;5.17;3.70;;;;;;;-2.36;76.62;100378.59;4973069;28;20114;-83
2021/03/05 21:33:21;;;;;;;9.47;3.77;;;;;;;-2.27;77.04;100395.06;4973683;28;20125;-83
2021/03/05 21:35:49;;;;;;;6.47;3.53;;;;;;;-2.36;76.43;100402.56;4974539;28;20058;-83
2021/03/05 21:38:16;;;;;;;7.23;3.87;;;;;;;-2.59;76.55;100361.06;4974449;28;20054;-82
2021/03/05 21:40:43;;;;;;;6.67;3.50;;;;;;;-2.49;76.09;100385.44;4973738;28;20061;-82
2021/03/05 21:43:09;;;;;;;7.87;4.07;;;;;;;-2.40;74.93;100398.31;4974975;28;20059;-82
2021/03/05 21:45:36;;;;;;;6.73;4.20;;;;;;;-2.47;75.50;100367.56;4974129;28;20050;-82
2021/03/05 21:48:02;;;;;;;12.00;4.33;;;;;;;-2.50;74.60;100362.38;4974619;28;20046;-82
2021/03/05 21:50:31;;;;;;;6.93;3.67;;;;;;;-2.40;73.88;100387.66;4974686;28;20133;-82
2021/03/05 21:52:57;;;;;;;6.87;4.43;;;;;;;-2.48;74.65;100379.19;4974649;28;20403;-81
2021/03/05 21:55:24;;;;;;;8.57;4.40;;;;;;;-2.40;73.19;100389.47;4973657;28;20055;-82
2021/03/05 21:57:51;;;;;;;8.57;4.27;;;;;;;-2.38;72.86;100391.13;4973894;28;20042;-82
2021/03/05 22:00:20;;;;;;;7.43;3.40;;;;;;;-2.20;72.43;100415.16;4973555;28;20055;-82
2021/03/05 22:02:47;;;;;;;8.90;3.75;;;;;;;-2.13;71.56;100417.44;4974291;28;20047;-82
2021/03/05 22:05:13;;;;;;;9.17;3.43;;;;;;;-2.27;71.34;100379.09;4973466;28;20082;-81
2021/03/05 22:07:40;;;;;;;6.90;3.67;;;;;;;-2.21;71.85;100410.78;4954944;28;20510;-82
2021/03/05 22:10:07;;;;;;;6.40;3.00;;;;;;;-2.18;71.59;100408.81;4954994;28;20127;-82
2021/03/05 22:12:35;;;;;;;6.33;3.20;;;;;;;-2.02;71.31;100421.41;4955218;28;20102;-82
2021/03/05 22:15:01;;;;;;;7.17;3.43;;;;;;;-2.31;71.90;100413.00;4954426;28;20059;-81
2021/03/05 22:17:27;;;;;;;5.67;3.50;;;;;;;-2.23;71.87;100433.94;4953741;28;20047;-81
2021/03/05 22:19:54;;;;;;;5.27;3.07;;;;;;;-2.22;71.78;100435.69;4954829;28;20051;-81
2021/03/05 22:22:20;;;;;;;6.07;3.20;;;;;;;-2.37;71.59;100410.63;4954739;28;20113;-81
2021/03/05 22:25:11;;;;;;;10.47;3.63;;;;;;;-2.17;71.56;100436.31;4953749;28;20054;-81
2021/03/05 22:27:39;;;;;;;8.07;3.40;;;;;;;-2.42;73.42;100425.97;4954717;28;20051;-81
2021/03/05 22:30:07;;;;;;;6.10;3.33;;;;;;;-2.58;72.86;100424.00;4966399;28;20059;-82
2021/03/05 22:32:33;;;;;;;5.67;3.50;;;;;;;-2.64;73.52;100423.44;4980247;28;20057;-79
2021/03/05 22:35:00;;;;;;;5.30;3.73;;;;;;;-2.63;73.65;100430.50;4979958;28;20402;-81
2021/03/05 22:37:26;;;;;;;6.77;3.50;;;;;;;-2.69;73.61;100431.63;4980649;28;20073;-81
2021/03/05 22:39:54;;;;;;;5.07;3.77;;;;;;;-2.73;73.54;100428.22;4980434;28;20055;-81
2021/03/05 22:42:20;;;;;;;4.87;3.27;;;;;;;-2.86;73.31;100403.09;4979247;28;20046;-80
2021/03/05 22:44:48;;;;;;;5.87;3.10;;;;;;;-2.84;73.38;100419.88;4980053;28;20058;-81
2021/03/05 22:47:14;;;;;;;7.93;3.20;;;;;;;-2.79;73.49;100417.00;4980128;28;20387;-81
2021/03/05 22:49:41;;;;;;;5.50;3.20;;;;;;;-2.90;73.21;100404.19;4980423;28;20129;-81
2021/03/05 22:52:07;;;;;;;4.90;2.97;;;;;;;-2.91;73.77;100410.41;4979896;28;20054;-81
2021/03/05 22:54:34;;;;;;;7.23;3.23;;;;;;;-2.87;73.41;100420.84;4978658;28;20051;-80
2021/03/05 22:57:00;;;;;;;7.90;3.50;;;;;;;-3.03;73.88;100401.19;4979737;28;20074;-82
2021/03/05 22:59:26;;;;;;;6.93;2.87;;;;;;;-2.78;72.36;100426.72;4978097;28;20346;-81
2021/03/05 23:01:54;;;;;;;6.60;3.20;;;;;;;-2.79;71.55;100417.00;4977533;28;20051;-81
2021/03/05 23:04:23;;;;;;;4.33;3.03;;;;;;;-2.61;70.74;100415.28;4979423;28;20555;-81
2021/03/05 23:06:49;;;;;;;6.57;3.50;;;;;;;-2.68;71.97;100409.38;4980336;28;20473;-81
2021/03/05 23:09:16;;;;;;;5.33;2.97;;;;;;;-2.84;72.79;100387.94;4979897;28;20050;-81
2021/03/05 23:11:42;;;;;;;5.03;3.07;;;;;;;-2.91;72.99;100402.44;4979865;28;20051;-81
2021/03/05 23:14:08;;;;;;;5.17;2.73;;;;;;;-3.00;72.98;100389.56;4979782;28;20062;-81
2021/03/05 23:16:35;;;;;;;8.43;3.13;;;;;;;-2.97;72.15;100403.56;4979874;28;20121;-81
2021/03/05 23:19:02;;;;;;;4.37;2.53;;;;;;;-2.86;70.41;100403.09;4978646;28;20046;-80
2021/03/05 23:21:29;;;;;;;5.73;2.77;;;;;;;-2.65;70.88;100411.91;4976121;28;20094;-81
2021/03/05 23:23:56;;;;;;;5.80;3.03;;;;;;;-2.58;70.82;100425.81;4960391;28;20051;-81
2021/03/05 23:26:22;;;;;;;5.37;2.97;;;;;;;-2.58;70.13;100420.47;4959896;28;20047;-80
2021/03/05 23:28:48;;;;;;;4.93;2.80;;;;;;;-2.49;69.75;100428.03;4960790;28;20047;-81
2021/03/05 23:31:15;;;;;;;8.07;3.07;;;;;;;-2.54;70.19;100435.38;4960287;28;20059;-80
2021/03/05 23:33:41;;;;;;;5.77;3.03;;;;;;;-2.65;69.92;100421.69;4960067;28;20106;-80
2021/03/05 23:36:09;;;;;;;5.53;3.00;;;;;;;-2.68;70.52;100420.91;4959866;28;20417;-80
2021/03/05 23:38:35;;;;;;;4.43;2.30;;;;;;;-2.89;70.20;100408.53;4977610;28;20120;-81
2021/03/05 23:41:02;;;;;;;4.20;2.47;;;;;;;-2.89;71.00;100420.06;4978970;28;20118;-80